Time;durP1;ratioP1;P1;durP2;ratioP2;P2;SDS_P1;SDS_P2;PMS_P1;PMS_P2;Temp;Humidity;BMP_temperature;BMP_pressure;BME280_temperature;BME280_humidity;BME280_pressure;Samples;Min_cycle;Max_cycle;Signal;HPM_P1;HPM_P2
2023/08/30 00:01:15;;;;;;;0.10;0.10;;;14.80;52.10;;;;;;5091574;28;20217;-59
2023/08/30 00:03:45;;;;;;;0.10;0.10;;;14.80;52.00;;;;;;5091803;28;20255;-60
2023/08/30 00:06:16;;;;;;;0.10;0.10;;;14.90;52.00;;;;;;5091427;28;20198;-60
2023/08/30 00:08:46;;;;;;;0.10;0.10;;;14.90;52.00;;;;;;5091055;28;20271;-60
2023/08/30 00:11:17;;;;;;;0.10;0.10;;;14.90;52.00;;;;;;5091203;28;20202;-60
2023/08/30 00:13:50;;;;;;;0.10;0.10;;;15.00;52.00;;;;;;5091212;28;20263;-60
2023/08/30 00:16:20;;;;;;;0.10;0.10;;;15.00;52.70;;;;;;5091168;28;20239;-60
2023/08/30 00:18:51;;;;;;;0.10;0.10;;;15.10;52.10;;;;;;5090888;28;20263;-60
2023/08/30 00:21:21;;;;;;;0.10;0.10;;;15.10;52.10;;;;;;5091031;28;20275;-60
2023/08/30 00:23:52;;;;;;;0.10;0.10;;;15.10;52.20;;;;;;5091119;28;20194;-60
2023/08/30 00:26:22;;;;;;;0.10;0.10;;;15.10;52.20;;;;;;5091052;28;20256;-60
2023/08/30 00:28:55;;;;;;;0.10;0.10;;;15.20;52.20;;;;;;5091024;28;20214;-60
2023/08/30 00:31:25;;;;;;;0.10;0.10;;;15.20;52.30;;;;;;5108089;28;20190;-61
2023/08/30 00:33:56;;;;;;;0.10;0.10;;;15.30;52.30;;;;;;5111545;28;20194;-60
2023/08/30 00:36:26;;;;;;;0.10;0.10;;;15.30;52.30;;;;;;5099582;28;20186;-60
2023/08/30 00:38:57;;;;;;;0.10;0.10;;;15.30;52.40;;;;;;5091082;28;20292;-60
2023/08/30 00:41:27;;;;;;;0.10;0.10;;;15.40;52.50;;;;;;5090966;28;20636;-61
2023/08/30 00:44:00;;;;;;;0.10;0.10;;;15.40;52.40;;;;;;5090754;28;20708;-60
2023/08/30 00:46:31;;;;;;;0.05;0.05;;;15.40;52.40;;;;;;5092007;28;20191;-60
2023/08/30 00:49:02;;;;;;;0.10;0.10;;;15.50;52.40;;;;;;5095361;28;20256;-60
2023/08/30 00:51:33;;;;;;;0.00;0.00;;;15.50;52.30;;;;;;5094723;28;20190;-61
2023/08/30 00:54:04;;;;;;;0.10;0.10;;;15.50;52.30;;;;;;5094593;28;20425;-60
2023/08/30 00:56:36;;;;;;;0.10;0.10;;;15.60;52.40;;;;;;5094069;28;20248;-61
2023/08/30 00:59:08;;;;;;;0.10;0.10;;;15.60;52.40;;;;;;5094312;28;20213;-60
2023/08/30 01:01:40;;;;;;;0.10;0.10;;;15.60;52.40;;;;;;5094271;28;20742;-61
2023/08/30 01:04:11;;;;;;;0.10;0.10;;;15.70;52.50;;;;;;5094735;28;20204;-62
2023/08/30 01:06:41;;;;;;;0.10;0.10;;;15.70;52.60;;;;;;5094283;28;20194;-61
2023/08/30 01:09:12;;;;;;;0.10;0.10;;;15.70;52.60;;;;;;5094403;28;20210;-61
2023/08/30 01:11:48;;;;;;;0.10;0.10;;;15.80;52.60;;;;;;5094191;28;20210;-61
2023/08/30 01:14:24;;;;;;;0.10;0.10;;;15.80;52.60;;;;;;5093994;28;20204;-60
2023/08/30 01:16:56;;;;;;;0.10;0.10;;;15.90;52.60;;;;;;5094239;28;20193;-61
2023/08/30 01:19:41;;;;;;;0.10;0.10;;;15.90;52.60;;;;;;5093737;28;20228;-60
2023/08/30 01:22:20;;;;;;;0.03;0.03;;;16.00;52.70;;;;;;5113863;28;20243;-61
2023/08/30 01:25:04;;;;;;;0.10;0.10;;;16.00;52.60;;;;;;5114561;28;20269;-60
2023/08/30 01:27:38;;;;;;;0.10;0.10;;;16.00;52.70;;;;;;5101050;28;20288;-61
2023/08/30 01:30:11;;;;;;;0.10;0.10;;;16.10;52.80;;;;;;5094158;28;20251;-61
2023/08/30 01:32:43;;;;;;;0.10;0.10;;;16.10;52.70;;;;;;5094089;28;20198;-61
2023/08/30 01:35:17;;;;;;;0.10;0.10;;;16.10;52.70;;;;;;5094009;28;20205;-60
2023/08/30 01:37:49;;;;;;;0.10;0.10;;;16.20;52.70;;;;;;5093775;28;20205;-61
2023/08/30 01:40:21;;;;;;;0.10;0.10;;;16.20;52.70;;;;;;5093457;28;20225;-60
2023/08/30 01:42:54;;;;;;;0.00;0.00;;;16.30;52.80;;;;;;5093614;28;20194;-60
2023/08/30 01:45:26;;;;;;;0.10;0.10;;;16.30;52.80;;;;;;5093940;28;20194;-62
2023/08/30 01:47:57;;;;;;;0.10;0.10;;;16.40;52.80;;;;;;5093701;28;20198;-60
2023/08/30 01:50:28;;;;;;;0.10;0.10;;;16.40;52.80;;;;;;5093267;28;20226;-60
2023/08/30 01:52:59;;;;;;;0.10;0.10;;;16.40;52.80;;;;;;5093268;28;20654;-61
2023/08/30 01:55:31;;;;;;;0.10;0.10;;;16.50;52.80;;;;;;5092684;28;20714;-62
2023/08/30 01:58:03;;;;;;;0.10;0.10;;;16.50;52.70;;;;;;5092543;28;20650;-61
2023/08/30 02:00:34;;;;;;;0.00;0.00;;;16.60;52.70;;;;;;5093137;28;20222;-62
2023/08/30 02:03:11;;;;;;;0.10;0.10;;;16.60;52.70;;;;;;5093819;28;20198;-62
2023/08/30 02:05:50;;;;;;;0.10;0.10;;;16.60;52.70;;;;;;5093372;28;20194;-61
2023/08/30 02:08:22;;;;;;;0.10;0.10;;;16.60;52.70;;;;;;5093390;28;20219;-61
2023/08/30 02:10:58;;;;;;;0.03;0.03;;;16.70;52.70;;;;;;5093193;28;20201;-61
2023/08/30 02:13:33;;;;;;;0.10;0.10;;;16.80;52.70;;;;;;5093330;28;20246;-61
2023/08/30 02:16:04;;;;;;;0.08;0.08;;;16.80;52.60;;;;;;5093397;28;20194;-61
2023/08/30 02:18:35;;;;;;;0.10;0.10;;;16.90;52.60;;;;;;5093162;28;20198;-61
2023/08/30 02:21:06;;;;;;;0.10;0.10;;;16.90;52.60;;;;;;5092958;28;20279;-61
2023/08/30 02:23:37;;;;;;;0.10;0.10;;;17.00;52.60;;;;;;5092980;28;20239;-61
2023/08/30 02:26:07;;;;;;;0.10;0.10;;;17.00;52.50;;;;;;5092509;28;20270;-63
2023/08/30 02:28:40;;;;;;;0.00;0.00;;;17.00;52.60;;;;;;5106780;28;20190;-62
2023/08/30 02:31:10;;;;;;;0.10;0.10;;;17.10;52.60;;;;;;5113286;28;20212;-60
2023/08/30 02:33:41;;;;;;;0.00;0.00;;;17.10;52.60;;;;;;5113367;28;20250;-60
2023/08/30 02:36:11;;;;;;;0.00;0.00;;;17.20;52.60;;;;;;5113198;28;20189;-62
2023/08/30 02:38:42;;;;;;;0.00;0.00;;;17.20;52.60;;;;;;5112727;28;20197;-61
2023/08/30 02:41:12;;;;;;;0.10;0.10;;;17.30;52.60;;;;;;5091814;28;20244;-60
2023/08/30 02:43:45;;;;;;;0.10;0.10;;;17.30;52.50;;;;;;5092490;28;20202;-62
2023/08/30 02:46:15;;;;;;;0.10;0.10;;;17.30;52.50;;;;;;5092181;28;20194;-61
2023/08/30 02:48:46;;;;;;;0.10;0.10;;;17.40;52.60;;;;;;5091741;28;20306;-61
2023/08/30 02:51:16;;;;;;;0.00;0.00;;;17.40;53.20;;;;;;5092299;28;20194;-60
2023/08/30 02:53:47;;;;;;;0.10;0.10;;;17.40;52.50;;;;;;5092631;28;20277;-60
2023/08/30 02:56:17;;;;;;;0.10;0.10;;;17.50;52.50;;;;;;5092338;28;20198;-62
2023/08/30 02:58:50;;;;;;;0.10;0.10;;;17.50;52.50;;;;;;5092291;28;20686;-63
2023/08/30 03:01:20;;;;;;;0.03;0.03;;;17.60;52.50;;;;;;5092304;28;20570;-60
2023/08/30 03:03:51;;;;;;;0.10;0.10;;;17.60;52.50;;;;;;5092877;28;20202;-62
2023/08/30 03:06:22;;;;;;;0.00;0.00;;;17.60;52.50;;;;;;5092226;28;20249;-62
2023/08/30 03:08:52;;;;;;;0.10;0.10;;;17.70;52.60;;;;;;5091573;28;20218;-61
2023/08/30 03:11:23;;;;;;;0.10;0.10;;;17.70;52.50;;;;;;5091889;28;20198;-62
2023/08/30 03:13:57;;;;;;;0.10;0.10;;;17.70;52.50;;;;;;5092016;28;20194;-62
2023/08/30 03:16:28;;;;;;;0.05;0.05;;;17.80;52.50;;;;;;5092156;28;20235;-62
2023/08/30 03:18:59;;;;;;;0.08;0.08;;;17.80;52.40;;;;;;5091542;28;20218;-62
2023/08/30 03:21:30;;;;;;;0.10;0.10;;;17.90;52.40;;;;;;5091925;28;20226;-60
2023/08/30 03:24:00;;;;;;;0.10;0.10;;;17.90;52.40;;;;;;5092102;28;20247;-63
2023/08/30 03:26:31;;;;;;;0.10;0.10;;;17.90;52.30;;;;;;5098887;28;20255;-62
2023/08/30 03:29:06;;;;;;;0.00;0.00;;;18.00;52.40;;;;;;5091855;28;20222;-62
2023/08/30 03:31:37;;;;;;;0.10;0.10;;;18.00;52.30;;;;;;5092078;28;20198;-62
2023/08/30 03:34:07;;;;;;;0.10;0.10;;;18.10;52.20;;;;;;5091871;28;20246;-61
2023/08/30 03:36:38;;;;;;;0.00;0.00;;;18.10;52.20;;;;;;5091957;28;20202;-61
2023/08/30 03:39:08;;;;;;;0.10;0.10;;;18.10;52.20;;;;;;5091857;28;20218;-62
2023/08/30 03:41:39;;;;;;;0.10;0.10;;;18.20;52.20;;;;;;5091718;28;20286;-63
2023/08/30 03:44:11;;;;;;;0.20;0.20;;;18.20;52.20;;;;;;5091858;28;20190;-61
2023/08/30 03:46:42;;;;;;;0.10;0.10;;;18.20;52.00;;;;;;5091756;28;20239;-61
2023/08/30 03:49:12;;;;;;;0.10;0.10;;;18.30;51.80;;;;;;5091306;28;20268;-59
2023/08/30 03:51:43;;;;;;;0.10;0.10;;;18.30;51.80;;;;;;5091155;28;20190;-58
2023/08/30 03:54:16;;;;;;;0.10;0.10;;;18.30;51.70;;;;;;5091706;28;20213;-59
2023/08/30 03:56:46;;;;;;;0.00;0.00;;;18.40;51.70;;;;;;5091368;28;20208;-58
2023/08/30 03:59:19;;;;;;;0.10;0.10;;;18.40;51.70;;;;;;5091513;28;20214;-60
2023/08/30 04:01:49;;;;;;;0.00;0.00;;;18.40;51.60;;;;;;5091616;28;20282;-59
2023/08/30 04:04:20;;;;;;;0.10;0.10;;;18.50;51.70;;;;;;5091785;28;20255;-58
2023/08/30 04:06:50;;;;;;;0.00;0.00;;;18.50;51.70;;;;;;5091556;28;20198;-59
2023/08/30 04:09:21;;;;;;;0.10;0.10;;;18.50;51.60;;;;;;5091066;28;20283;-59
2023/08/30 04:11:51;;;;;;;0.00;0.00;;;18.60;51.70;;;;;;5091754;28;20194;-59
2023/08/30 04:14:24;;;;;;;0.10;0.10;;;18.60;51.60;;;;;;5091226;28;20202;-59
2023/08/30 04:16:54;;;;;;;0.00;0.00;;;18.60;51.60;;;;;;5091353;28;20235;-58
2023/08/30 04:19:25;;;;;;;0.10;0.10;;;18.60;51.50;;;;;;5097825;28;20213;-59
2023/08/30 04:21:55;;;;;;;0.10;0.10;;;18.70;51.50;;;;;;5115458;28;20266;-60
2023/08/30 04:24:26;;;;;;;0.00;0.00;;;18.70;51.50;;;;;;5115797;28;20201;-62
2023/08/30 04:26:56;;;;;;;0.00;0.00;;;18.70;51.40;;;;;;5107277;28;20210;-59
2023/08/30 04:29:29;;;;;;;0.10;0.10;;;18.80;51.40;;;;;;5095261;28;20259;-59
2023/08/30 04:31:59;;;;;;;0.10;0.10;;;18.80;51.30;;;;;;5095303;28;20198;-58
2023/08/30 04:34:30;;;;;;;0.10;0.10;;;18.80;51.20;;;;;;5095274;28;20197;-58
2023/08/30 04:37:01;;;;;;;0.10;0.10;;;18.80;51.20;;;;;;5095329;28;20252;-61
2023/08/30 04:39:31;;;;;;;0.05;0.05;;;18.90;51.20;;;;;;5095199;28;20215;-59
2023/08/30 04:42:03;;;;;;;0.10;0.10;;;18.90;51.20;;;;;;5094928;28;20222;-59
2023/08/30 04:44:35;;;;;;;0.10;0.10;;;18.90;51.20;;;;;;5094933;28;20195;-59
2023/08/30 04:47:06;;;;;;;0.00;0.00;;;18.90;51.70;;;;;;5094215;28;20248;-60
2023/08/30 04:49:36;;;;;;;0.00;0.00;;;19.00;51.10;;;;;;5094630;28;20222;-58
2023/08/30 04:52:08;;;;;;;0.10;0.10;;;19.00;51.10;;;;;;5094900;28;20194;-59
2023/08/30 04:54:39;;;;;;;0.10;0.10;;;19.00;51.10;;;;;;5094944;28;20219;-60
2023/08/30 04:57:09;;;;;;;0.00;0.00;;;19.00;51.10;;;;;;5094462;28;20255;-60
2023/08/30 04:59:42;;;;;;;0.10;0.10;;;19.00;51.10;;;;;;5094309;28;20751;-59
2023/08/30 05:02:12;;;;;;;0.10;0.10;;;19.00;51.00;;;;;;5093957;28;20226;-60
2023/08/30 05:04:43;;;;;;;0.10;0.10;;;19.10;51.10;;;;;;5094486;28;20197;-58
2023/08/30 05:07:13;;;;;;;0.00;0.00;;;19.10;51.10;;;;;;5093802;28;20646;-60
2023/08/30 05:09:44;;;;;;;0.08;0.08;;;19.10;51.00;;;;;;5094131;28;20214;-61
2023/08/30 05:12:14;;;;;;;0.00;0.00;;;19.10;51.60;;;;;;5094400;28;20244;-59
2023/08/30 05:14:47;;;;;;;0.10;0.10;;;19.10;51.00;;;;;;5094368;28;20201;-60
2023/08/30 05:17:17;;;;;;;0.00;0.00;;;19.20;51.10;;;;;;5094371;28;20251;-58
2023/08/30 05:19:48;;;;;;;0.00;0.00;;;19.20;51.10;;;;;;5094013;28;20218;-59
2023/08/30 05:22:18;;;;;;;0.00;0.00;;;19.20;51.10;;;;;;5094124;28;20310;-59
2023/08/30 05:24:49;;;;;;;0.00;0.00;;;19.20;51.00;;;;;;5105885;28;20669;-59
2023/08/30 05:27:20;;;;;;;0.00;0.00;;;19.20;51.00;;;;;;5103111;28;20437;-59
2023/08/30 05:29:52;;;;;;;0.10;0.10;;;19.20;51.00;;;;;;5093886;28;20637;-59
2023/08/30 05:32:22;;;;;;;0.00;0.00;;;19.20;51.00;;;;;;5093395;28;20225;-59
2023/08/30 05:34:53;;;;;;;0.00;0.00;;;19.20;51.00;;;;;;5093798;28;20247;-58
2023/08/30 05:37:24;;;;;;;0.00;0.00;;;19.20;51.00;;;;;;5093805;28;20194;-60
2023/08/30 05:39:54;;;;;;;0.10;0.10;;;19.20;51.00;;;;;;5094072;28;20214;-60
2023/08/30 05:42:25;;;;;;;0.00;0.00;;;19.20;50.90;;;;;;5093702;28;20222;-60
2023/08/30 05:44:57;;;;;;;0.10;0.10;;;19.20;50.80;;;;;;5093350;28;20602;-60
2023/08/30 05:47:28;;;;;;;0.03;0.03;;;19.20;50.80;;;;;;5093346;28;20635;-59
2023/08/30 05:49:58;;;;;;;0.00;0.00;;;19.20;50.70;;;;;;5093867;28;20218;-60
2023/08/30 05:52:29;;;;;;;0.00;0.00;;;19.20;50.80;;;;;;5093713;28;20247;-60
2023/08/30 05:54:59;;;;;;;0.00;0.00;;;19.20;50.90;;;;;;5093482;28;20193;-60
2023/08/30 05:57:33;;;;;;;0.10;0.10;;;19.20;50.90;;;;;;5092856;28;20202;-60
2023/08/30 06:00:07;;;;;;;0.10;0.10;;;19.20;50.90;;;;;;5093159;28;20218;-59
2023/08/30 06:02:38;;;;;;;0.00;0.00;;;19.20;50.70;;;;;;5093496;28;20221;-60
2023/08/30 06:05:09;;;;;;;0.10;0.10;;;19.20;50.70;;;;;;5093475;28;20186;-60
2023/08/30 06:07:39;;;;;;;0.00;0.00;;;19.20;50.70;;;;;;5093137;28;20198;-60
2023/08/30 06:10:10;;;;;;;0.00;0.00;;;19.20;50.70;;;;;;5092892;28;20214;-60
2023/08/30 06:12:41;;;;;;;0.00;0.00;;;19.20;50.60;;;;;;5092812;28;20198;-60
2023/08/30 06:15:14;;;;;;;0.00;0.00;;;19.20;50.60;;;;;;5093240;28;20638;-60
2023/08/30 06:17:46;;;;;;;0.10;0.10;;;19.10;50.60;;;;;;5093058;28;20193;-59
2023/08/30 06:20:16;;;;;;;0.10;0.10;;;19.10;50.60;;;;;;5093310;28;20313;-60
2023/08/30 06:22:47;;;;;;;0.00;0.00;;;19.10;50.60;;;;;;5092748;28;20274;-59
2023/08/30 06:25:18;;;;;;;0.00;0.00;;;19.10;50.60;;;;;;5092822;28;20202;-60
2023/08/30 06:28:01;;;;;;;0.00;0.00;;;19.10;50.60;;;;;;5093074;28;20194;-59
2023/08/30 06:30:33;;;;;;;0.08;0.08;;;19.10;50.70;;;;;;5087672;28;20219;-60
2023/08/30 06:33:04;;;;;;;0.00;0.00;;;19.10;50.60;;;;;;5072518;28;20651;-60
2023/08/30 06:35:34;;;;;;;0.00;0.00;;;19.00;50.50;;;;;;5072279;28;20198;-60
2023/08/30 06:38:05;;;;;;;0.10;0.10;;;19.00;50.50;;;;;;5072469;28;20198;-59
2023/08/30 06:40:36;;;;;;;0.00;0.00;;;19.00;50.40;;;;;;5072602;28;20215;-60
2023/08/30 06:43:07;;;;;;;0.08;0.08;;;19.00;50.40;;;;;;5071839;28;20218;-59
2023/08/30 06:45:40;;;;;;;0.10;0.10;;;19.00;50.30;;;;;;5071397;28;20190;-59
2023/08/30 06:48:11;;;;;;;0.10;0.10;;;18.90;50.20;;;;;;5083846;28;20247;-59
2023/08/30 06:50:41;;;;;;;0.10;0.10;;;18.90;50.20;;;;;;5092081;28;20206;-60
2023/08/30 06:53:12;;;;;;;0.10;0.10;;;18.90;50.20;;;;;;5092962;28;20205;-60
2023/08/30 06:55:42;;;;;;;0.00;0.00;;;18.90;50.20;;;;;;5092438;28;20190;-59
2023/08/30 06:58:13;;;;;;;0.03;0.03;;;18.80;50.10;;;;;;5091852;28;20726;-60
2023/08/30 07:00:45;;;;;;;0.08;0.08;;;18.80;50.20;;;;;;5091310;28;20267;-59
2023/08/30 07:03:16;;;;;;;0.03;0.03;;;18.80;50.20;;;;;;5100005;22;20278;-44
2023/08/30 07:05:47;;;;;;;0.00;0.00;;;18.80;50.20;;;;;;5071523;28;20244;-45
2023/08/30 07:08:17;;;;;;;0.10;0.10;;;18.80;50.20;;;;;;5072120;28;20217;-46
2023/08/30 07:10:48;;;;;;;0.10;0.10;;;18.70;50.10;;;;;;5071894;28;20214;-45
2023/08/30 07:13:19;;;;;;;0.10;0.10;;;18.70;50.20;;;;;;5071845;28;20268;-46
2023/08/30 07:15:51;;;;;;;0.03;0.03;;;18.70;50.10;;;;;;5071126;28;20202;-46
2023/08/30 07:18:21;;;;;;;0.10;0.10;;;18.70;50.10;;;;;;5073278;28;20256;-47
2023/08/30 07:20:52;;;;;;;0.00;0.00;;;18.70;50.10;;;;;;5073221;28;20198;-47
2023/08/30 07:23:23;;;;;;;0.05;0.05;;;18.60;50.00;;;;;;5073054;28;20277;-46
2023/08/30 07:25:55;;;;;;;0.00;0.00;;;18.60;50.00;;;;;;5073253;28;20198;-47
2023/08/30 07:28:25;;;;;;;0.00;0.00;;;18.60;50.00;;;;;;5052774;28;20195;-48
2023/08/30 07:31:05;;;;;;;0.00;0.00;;;18.50;50.00;;;;;;5055593;28;20629;-47
2023/08/30 07:33:36;;;;;;;0.10;0.10;;;18.50;50.00;;;;;;5052694;28;20199;-48
2023/08/30 07:36:07;;;;;;;0.10;0.10;;;18.50;49.90;;;;;;5052139;28;20264;-47
2023/08/30 07:38:38;;;;;;;0.00;0.00;;;18.50;50.00;;;;;;5051718;28;20199;-48
2023/08/30 07:41:09;;;;;;;0.10;0.10;;;18.40;49.90;;;;;;5050821;28;20195;-47
2023/08/30 07:43:39;;;;;;;0.00;0.00;;;18.40;50.00;;;;;;5050308;28;20276;-51
2023/08/30 07:46:12;;;;;;;0.10;0.10;;;18.40;50.00;;;;;;5051234;28;20253;-44
2023/08/30 07:48:42;;;;;;;0.10;0.10;;;18.30;50.00;;;;;;5051358;28;20195;-48
2023/08/30 07:51:13;;;;;;;0.00;0.00;;;18.30;50.00;;;;;;5051218;28;20675;-48
2023/08/30 07:53:43;;;;;;;0.00;0.00;;;18.30;50.20;;;;;;5051274;28;20196;-49
2023/08/30 07:56:14;;;;;;;0.10;0.10;;;18.30;50.00;;;;;;5071693;28;20194;-45
2023/08/30 07:58:45;;;;;;;0.10;0.10;;;18.30;50.00;;;;;;5075135;28;20244;-46
2023/08/30 08:01:17;;;;;;;0.00;0.00;;;18.30;50.00;;;;;;5075687;28;20244;-48
2023/08/30 08:03:47;;;;;;;0.10;0.10;;;18.20;49.90;;;;;;5074846;28;20226;-47
2023/08/30 08:06:18;;;;;;;0.00;0.00;;;18.20;50.50;;;;;;5083109;22;20290;-58
2023/08/30 08:08:49;;;;;;;0.00;0.00;;;18.20;49.90;;;;;;5055306;28;20216;-58
2023/08/30 08:11:19;;;;;;;0.10;0.10;;;18.10;49.90;;;;;;5055526;28;20256;-58
2023/08/30 08:13:50;;;;;;;0.10;0.10;;;18.10;49.90;;;;;;5054391;28;20611;-56
2023/08/30 08:16:22;;;;;;;0.00;0.00;;;18.10;49.90;;;;;;5055187;28;20245;-56
2023/08/30 08:18:53;;;;;;;0.00;0.00;;;18.00;49.80;;;;;;5055419;28;20634;-56
2023/08/30 08:21:23;;;;;;;0.05;0.05;;;18.00;49.80;;;;;;5055645;28;20199;-54
2023/08/30 08:23:54;;;;;;;0.00;0.00;;;18.00;49.80;;;;;;5054961;28;20280;-57
2023/08/30 08:26:25;;;;;;;0.00;0.00;;;18.00;49.80;;;;;;5054862;28;20199;-55
2023/08/30 08:28:56;;;;;;;0.08;0.08;;;17.90;49.80;;;;;;5054048;28;20215;-56
2023/08/30 08:31:29;;;;;;;0.00;0.00;;;17.90;49.80;;;;;;5054957;28;20266;-54
2023/08/30 08:34:11;;;;;;;0.10;0.10;;;17.90;49.90;;;;;;5054896;28;20242;-56
2023/08/30 08:36:43;;;;;;;0.10;0.10;;;17.90;50.00;;;;;;5055454;28;20198;-55
2023/08/30 08:39:14;;;;;;;0.00;0.00;;;17.80;49.90;;;;;;5054842;28;20220;-54
2023/08/30 08:41:45;;;;;;;0.00;0.00;;;17.80;49.90;;;;;;5054776;28;20196;-55
2023/08/30 08:44:17;;;;;;;0.10;0.10;;;17.80;49.90;;;;;;5053867;28;20888;-53
2023/08/30 08:46:51;;;;;;;0.10;0.10;;;17.80;49.90;;;;;;5054615;28;20712;-55
2023/08/30 08:49:22;;;;;;;0.10;0.10;;;17.70;49.90;;;;;;5054219;28;20284;-59
2023/08/30 08:51:54;;;;;;;0.10;0.10;;;17.70;49.90;;;;;;5054747;28;20249;-57
2023/08/30 08:54:25;;;;;;;0.00;0.00;;;17.70;49.90;;;;;;5054434;28;20249;-55
2023/08/30 08:56:57;;;;;;;0.00;0.00;;;17.70;49.90;;;;;;5054481;28;20257;-52
2023/08/30 08:59:28;;;;;;;0.00;0.00;;;17.60;49.80;;;;;;5053774;28;20216;-57
2023/08/30 09:02:01;;;;;;;0.00;0.00;;;17.60;49.80;;;;;;5054376;28;20262;-57
2023/08/30 09:04:34;;;;;;;0.10;0.10;;;17.60;49.80;;;;;;5053752;28;20253;-59
2023/08/30 09:07:04;;;;;;;0.10;0.10;;;17.50;49.80;;;;;;5065375;22;20227;-59
2023/08/30 09:09:36;;;;;;;0.00;0.00;;;17.50;49.80;;;;;;5053982;28;20223;-59
2023/08/30 09:12:07;;;;;;;0.05;0.05;;;17.50;49.80;;;;;;5054075;28;20304;-59
2023/08/30 09:14:37;;;;;;;0.00;0.00;;;17.50;49.90;;;;;;5053791;28;20250;-59
2023/08/30 09:17:10;;;;;;;0.08;0.08;;;17.40;49.80;;;;;;5054140;28;20572;-59
2023/08/30 09:19:40;;;;;;;0.00;0.00;;;17.40;49.90;;;;;;5053449;28;20761;-59
2023/08/30 09:22:11;;;;;;;0.00;0.00;;;17.40;49.90;;;;;;5053614;28;20249;-59
2023/08/30 09:24:44;;;;;;;0.00;0.00;;;17.40;49.90;;;;;;5054131;28;20255;-59
2023/08/30 09:27:15;;;;;;;0.10;0.10;;;17.30;50.40;;;;;;5053521;28;20196;-59
2023/08/30 09:29:45;;;;;;;0.10;0.10;;;17.30;49.80;;;;;;5054141;28;20261;-59
2023/08/30 09:32:24;;;;;;;0.10;0.10;;;17.30;49.80;;;;;;5054022;28;20637;-59
2023/08/30 09:34:55;;;;;;;0.10;0.10;;;17.30;49.80;;;;;;5053715;28;20234;-59
2023/08/30 09:37:26;;;;;;;0.10;0.10;;;17.30;49.80;;;;;;5053841;28;20200;-59
2023/08/30 09:39:57;;;;;;;0.00;0.00;;;17.20;49.80;;;;;;5053771;28;20695;-59
2023/08/30 09:42:27;;;;;;;0.00;0.00;;;17.20;49.80;;;;;;5052510;28;20247;-59
2023/08/30 09:44:58;;;;;;;0.08;0.08;;;17.20;49.80;;;;;;5053341;28;20199;-60
2023/08/30 09:47:32;;;;;;;0.08;0.08;;;17.10;49.70;;;;;;5053576;28;20195;-59
2023/08/30 09:50:04;;;;;;;0.10;0.10;;;17.10;49.70;;;;;;5053258;28;20215;-59
2023/08/30 09:52:36;;;;;;;0.00;0.00;;;17.10;49.70;;;;;;5053496;28;20612;-59
2023/08/30 09:55:07;;;;;;;0.00;0.00;;;17.10;49.80;;;;;;5053538;28;20203;-59
2023/08/30 09:57:39;;;;;;;0.00;0.00;;;17.00;49.80;;;;;;5052672;28;20199;-59
2023/08/30 10:00:12;;;;;;;0.10;0.10;;;17.00;49.80;;;;;;5052897;28;20211;-59
2023/08/30 10:02:45;;;;;;;0.00;0.00;;;17.00;49.80;;;;;;5053202;28;20218;-59
2023/08/30 10:05:16;;;;;;;0.08;0.08;;;17.00;49.90;;;;;;5053274;28;20644;-60
2023/08/30 10:07:48;;;;;;;0.10;0.10;;;17.00;49.90;;;;;;5053710;28;20207;-59
2023/08/30 10:10:19;;;;;;;0.10;0.10;;;16.90;49.80;;;;;;5052828;28;20635;-59
2023/08/30 10:12:51;;;;;;;0.08;0.08;;;16.90;49.80;;;;;;5052076;28;20199;-59
2023/08/30 10:15:26;;;;;;;0.10;0.10;;;16.90;49.90;;;;;;5052825;28;20199;-59
2023/08/30 10:18:00;;;;;;;0.00;0.00;;;16.80;49.80;;;;;;5052242;28;20206;-59
2023/08/30 10:20:31;;;;;;;0.00;0.00;;;16.80;49.80;;;;;;5053358;28;20223;-59
2023/08/30 10:23:03;;;;;;;0.00;0.00;;;16.80;49.80;;;;;;5052846;28;20219;-59
2023/08/30 10:25:35;;;;;;;0.00;0.00;;;16.80;49.80;;;;;;5052959;28;20254;-59
2023/08/30 10:28:05;;;;;;;0.05;0.05;;;16.70;49.80;;;;;;5052588;28;20203;-59
2023/08/30 10:30:36;;;;;;;0.00;0.00;;;16.70;49.90;;;;;;5052357;28;20686;-59
2023/08/30 10:33:16;;;;;;;0.10;0.10;;;16.70;49.90;;;;;;5052097;28;20253;-59
2023/08/30 10:35:55;;;;;;;0.10;0.10;;;16.70;49.90;;;;;;5052604;28;20290;-59
2023/08/30 10:38:30;;;;;;;0.10;0.10;;;16.70;49.90;;;;;;5052510;28;20241;-59
2023/08/30 10:41:10;;;;;;;0.08;0.08;;;16.60;49.90;;;;;;5051888;28;20218;-59
2023/08/30 10:43:40;;;;;;;0.10;0.10;;;16.60;50.00;;;;;;5052268;28;20223;-59
2023/08/30 10:46:12;;;;;;;0.10;0.10;;;16.60;49.90;;;;;;5052378;28;20462;-59
2023/08/30 10:48:45;;;;;;;0.00;0.00;;;16.50;49.90;;;;;;5052394;28;20206;-59
2023/08/30 10:51:38;;;;;;;0.10;0.10;;;16.50;49.90;;;;;;5052643;28;20199;-59
2023/08/30 10:54:15;;;;;;;0.10;0.10;;;16.50;50.00;;;;;;5052711;28;20195;-59
2023/08/30 10:56:59;;;;;;;0.08;0.08;;;16.50;50.00;;;;;;5052412;28;20195;-59
2023/08/30 10:59:31;;;;;;;0.10;0.10;;;16.40;49.90;;;;;;5051638;28;20644;-59
2023/08/30 11:02:04;;;;;;;0.10;0.10;;;16.40;49.90;;;;;;5052156;28;20609;-59
2023/08/30 11:04:42;;;;;;;0.10;0.10;;;16.40;49.90;;;;;;5051934;28;20227;-59
2023/08/30 11:07:13;;;;;;;0.10;0.10;;;16.40;49.90;;;;;;5052430;28;20213;-59
2023/08/30 11:09:44;;;;;;;0.00;0.00;;;16.40;50.00;;;;;;5051635;28;20230;-59
2023/08/30 11:12:14;;;;;;;0.10;0.10;;;16.30;50.00;;;;;;5051714;28;20196;-59
2023/08/30 11:14:45;;;;;;;0.10;0.10;;;16.30;50.00;;;;;;5051072;28;20220;-59
2023/08/30 11:17:18;;;;;;;0.10;0.10;;;16.30;50.00;;;;;;5051383;28;20290;-59
2023/08/30 11:19:51;;;;;;;0.10;0.10;;;16.20;50.00;;;;;;5051246;28;20215;-59
2023/08/30 11:22:22;;;;;;;0.00;0.00;;;16.20;50.10;;;;;;5051546;28;20265;-59
2023/08/30 11:24:54;;;;;;;0.10;0.10;;;16.20;50.10;;;;;;5051729;28;20231;-59
2023/08/30 11:27:24;;;;;;;0.00;0.00;;;16.20;50.10;;;;;;5051916;28;20344;-59
2023/08/30 11:29:55;;;;;;;0.10;0.10;;;16.10;50.00;;;;;;5050794;28;20215;-59
2023/08/30 11:32:25;;;;;;;0.00;0.00;;;16.10;50.00;;;;;;5051544;28;20199;-59
2023/08/30 11:35:01;;;;;;;0.00;0.00;;;16.10;50.10;;;;;;5051089;28;20196;-59
2023/08/30 11:37:32;;;;;;;0.10;0.10;;;16.10;50.00;;;;;;5051847;28;20647;-59
2023/08/30 11:40:06;;;;;;;0.10;0.10;;;16.10;50.10;;;;;;5051674;28;20215;-59
2023/08/30 11:42:36;;;;;;;0.10;0.10;;;16.10;50.10;;;;;;5051593;28;20199;-59
2023/08/30 11:45:07;;;;;;;0.10;0.10;;;16.00;50.10;;;;;;5051454;28;20231;-59
2023/08/30 11:47:38;;;;;;;0.10;0.10;;;16.00;50.10;;;;;;5051495;28;20253;-59
2023/08/30 11:50:12;;;;;;;0.10;0.10;;;16.00;50.10;;;;;;5051154;28;20302;-59
2023/08/30 11:52:43;;;;;;;0.10;0.10;;;16.00;50.10;;;;;;5051302;28;20619;-59
2023/08/30 11:55:14;;;;;;;0.10;0.10;;;15.90;50.00;;;;;;5051766;28;20203;-59
2023/08/30 11:57:47;;;;;;;0.08;0.08;;;15.90;50.10;;;;;;5051280;28;20203;-59
2023/08/30 12:00:20;;;;;;;0.10;0.10;;;15.90;50.70;;;;;;5051550;28;20517;-59
2023/08/30 12:02:51;;;;;;;0.10;0.10;;;15.90;50.10;;;;;;5051505;28;20709;-59
2023/08/30 12:05:23;;;;;;;0.00;0.00;;;15.80;50.10;;;;;;5051201;28;20243;-59
2023/08/30 12:07:54;;;;;;;0.10;0.10;;;15.80;50.10;;;;;;5051758;28;20253;-59
2023/08/30 12:10:25;;;;;;;0.00;0.00;;;15.80;50.10;;;;;;5050820;28;20691;-59
2023/08/30 12:12:55;;;;;;;0.00;0.00;;;15.70;50.20;;;;;;5050929;28;20195;-59
2023/08/30 12:15:27;;;;;;;0.10;0.10;;;15.70;50.10;;;;;;5051359;28;20295;-59
2023/08/30 12:17:58;;;;;;;0.10;0.10;;;15.70;50.20;;;;;;5051130;28;20196;-59
2023/08/30 12:20:31;;;;;;;0.10;0.10;;;15.70;50.10;;;;;;5051303;28;20219;-59
2023/08/30 12:23:01;;;;;;;0.10;0.10;;;15.70;50.20;;;;;;5051141;28;20195;-59
2023/08/30 12:25:33;;;;;;;0.10;0.10;;;15.70;50.20;;;;;;5050915;28;20203;-59
2023/08/30 12:28:04;;;;;;;0.10;0.10;;;15.70;50.20;;;;;;5050849;28;20199;-59
2023/08/30 12:30:34;;;;;;;0.00;0.00;;;15.60;50.10;;;;;;5051078;28;20223;-59
2023/08/30 12:33:05;;;;;;;0.10;0.10;;;15.60;50.10;;;;;;5050374;28;20250;-59
2023/08/30 12:35:38;;;;;;;0.10;0.10;;;15.60;50.10;;;;;;5051032;28;20203;-58
2023/08/30 12:38:09;;;;;;;0.10;0.10;;;15.60;50.20;;;;;;5050476;28;20648;-59
2023/08/30 12:40:39;;;;;;;0.10;0.10;;;15.50;50.20;;;;;;5050521;28;20560;-59
2023/08/30 12:43:10;;;;;;;0.10;0.10;;;15.50;50.20;;;;;;5054420;28;20202;-59
2023/08/30 12:45:41;;;;;;;0.10;0.10;;;15.50;50.20;;;;;;5054847;28;20245;-59
2023/08/30 12:48:14;;;;;;;0.10;0.10;;;15.50;50.20;;;;;;5054643;28;20200;-59
2023/08/30 12:50:47;;;;;;;0.10;0.10;;;15.50;50.20;;;;;;5054165;28;20216;-59
2023/08/30 12:53:18;;;;;;;0.10;0.10;;;15.40;50.20;;;;;;5053791;28;20191;-59
2023/08/30 12:55:49;;;;;;;0.10;0.10;;;15.40;50.20;;;;;;5054637;28;20607;-59
2023/08/30 12:58:19;;;;;;;0.10;0.10;;;15.40;50.20;;;;;;5054170;28;20265;-59
2023/08/30 13:00:50;;;;;;;0.10;0.10;;;15.40;50.20;;;;;;5054406;28;20613;-59
2023/08/30 13:03:20;;;;;;;0.10;0.10;;;15.40;50.20;;;;;;5054504;28;20595;-59
2023/08/30 13:05:56;;;;;;;0.10;0.10;;;15.40;50.20;;;;;;5054204;28;20349;-63
2023/08/30 13:08:26;;;;;;;0.10;0.10;;;15.30;50.20;;;;;;5054209;28;20206;-59
2023/08/30 13:10:57;;;;;;;0.10;0.10;;;15.30;50.20;;;;;;5054316;28;20203;-59